Bible School Park, New York
Current Conditions -  °F | °C
As of 3:53 PM on Saturday 25 Oct 2014 (Local Time) from KBGM Reporting Station
Overcast Overcast  
Wind Chill: 62°   Ceiling: 7000
Heat Index: 62°   Visibility: 10mi
Dew Point: 44°   Wind: 13mph
Humidity: 52%   Direction: 220°SW
Pressure: 29.64"   Gusts: 18mph
Location:  42.11°N, 75.97°W
Report Text: KBGM 251953Z 22011G16KT 10SM OVC070 17/07 A2964 RMK AO2 SLP039 T01670067
Loading
Personal Weather Stations






























Interactive Weather Map
Tropical Storm Tracking
New forecast layout! Learn more

10-Day Weather Forecast

Advertisements
Track Severe Weather on mobile